sensor_id;sensor_type;location;lat;lon;timestamp;P1;durP1;ratioP1;P2;durP2;ratioP2
25982;SDS011;13773;48.868;10.730;2024-03-23T00:53:27;10.50;;;8.07;;
25982;SDS011;13773;48.868;10.730;2024-03-23T00:55:53;12.07;;;8.47;;
25982;SDS011;13773;48.868;10.730;2024-03-23T00:58:19;9.97;;;7.60;;
25982;SDS011;13773;48.868;10.730;2024-03-23T01:00:44;10.93;;;8.20;;
25982;SDS011;13773;48.868;10.730;2024-03-23T01:03:10;10.23;;;7.83;;
25982;SDS011;13773;48.868;10.730;2024-03-23T01:05:36;13.27;;;8.30;;
25982;SDS011;13773;48.868;10.730;2024-03-23T01:08:01;12.37;;;8.70;;
25982;SDS011;13773;48.868;10.730;2024-03-23T01:10:27;12.50;;;8.57;;
25982;SDS011;13773;48.868;10.730;2024-03-23T01:12:53;11.03;;;8.20;;
25982;SDS011;13773;48.868;10.730;2024-03-23T01:15:18;11.97;;;8.33;;
25982;SDS011;13773;48.868;10.730;2024-03-23T01:17:44;13.87;;;7.97;;
25982;SDS011;13773;48.868;10.730;2024-03-23T01:20:10;11.00;;;8.10;;
25982;SDS011;13773;48.868;10.730;2024-03-23T01:22:35;10.70;;;7.67;;
25982;SDS011;13773;48.868;10.730;2024-03-23T01:25:01;10.03;;;7.87;;
25982;SDS011;13773;48.868;10.730;2024-03-23T01:27:27;12.67;;;7.73;;
25982;SDS011;13773;48.868;10.730;2024-03-23T01:29:52;11.60;;;7.70;;
25982;SDS011;13773;48.868;10.730;2024-03-23T01:32:18;14.27;;;7.80;;
25982;SDS011;13773;48.868;10.730;2024-03-23T01:34:44;9.60;;;7.47;;
25982;SDS011;13773;48.868;10.730;2024-03-23T01:37:10;8.90;;;7.63;;
25982;SDS011;13773;48.868;10.730;2024-03-23T01:39:35;9.77;;;7.67;;
25982;SDS011;13773;48.868;10.730;2024-03-23T01:42:01;9.20;;;8.17;;
25982;SDS011;13773;48.868;10.730;2024-03-23T01:44:27;10.20;;;8.03;;
25982;SDS011;13773;48.868;10.730;2024-03-23T01:46:53;9.60;;;7.33;;
25982;SDS011;13773;48.868;10.730;2024-03-23T01:49:18;10.57;;;6.93;;
25982;SDS011;13773;48.868;10.730;2024-03-23T01:51:45;12.67;;;7.77;;
25982;SDS011;13773;48.868;10.730;2024-03-23T01:54:11;8.70;;;7.23;;
25982;SDS011;13773;48.868;10.730;2024-03-23T01:56:36;9.40;;;7.27;;
25982;SDS011;13773;48.868;10.730;2024-03-23T01:59:05;9.90;;;7.13;;
25982;SDS011;13773;48.868;10.730;2024-03-23T02:01:31;9.73;;;6.57;;
25982;SDS011;13773;48.868;10.730;2024-03-23T02:04:00;10.60;;;6.53;;
25982;SDS011;13773;48.868;10.730;2024-03-23T02:06:26;7.87;;;5.73;;
25982;SDS011;13773;48.868;10.730;2024-03-23T02:08:53;7.83;;;5.43;;
25982;SDS011;13773;48.868;10.730;2024-03-23T02:11:19;7.03;;;6.07;;
25982;SDS011;13773;48.868;10.730;2024-03-23T02:13:45;8.10;;;5.50;;
25982;SDS011;13773;48.868;10.730;2024-03-23T02:16:11;8.40;;;5.10;;
25982;SDS011;13773;48.868;10.730;2024-03-23T02:18:38;5.10;;;4.20;;
25982;SDS011;13773;48.868;10.730;2024-03-23T02:21:04;5.30;;;4.80;;
25982;SDS011;13773;48.868;10.730;2024-03-23T02:23:29;7.90;;;4.80;;
25982;SDS011;13773;48.868;10.730;2024-03-23T02:25:55;8.27;;;4.90;;
25982;SDS011;13773;48.868;10.730;2024-03-23T02:28:21;5.27;;;4.17;;
25982;SDS011;13773;48.868;10.730;2024-03-23T02:30:48;5.43;;;4.27;;
25982;SDS011;13773;48.868;10.730;2024-03-23T02:33:14;5.80;;;4.80;;
25982;SDS011;13773;48.868;10.730;2024-03-23T02:35:41;6.30;;;4.73;;
25982;SDS011;13773;48.868;10.730;2024-03-23T02:38:06;5.30;;;4.20;;
25982;SDS011;13773;48.868;10.730;2024-03-23T02:40:32;6.57;;;4.20;;
25982;SDS011;13773;48.868;10.730;2024-03-23T02:42:58;4.67;;;3.93;;
25982;SDS011;13773;48.868;10.730;2024-03-23T02:45:23;6.27;;;4.30;;
25982;SDS011;13773;48.868;10.730;2024-03-23T02:47:49;4.43;;;4.03;;
25982;SDS011;13773;48.868;10.730;2024-03-23T02:50:20;7.77;;;4.50;;
25982;SDS011;13773;48.868;10.730;2024-03-23T02:52:46;6.70;;;4.40;;
25982;SDS011;13773;48.868;10.730;2024-03-23T02:55:12;4.07;;;3.43;;
25982;SDS011;13773;48.868;10.730;2024-03-23T02:57:38;7.47;;;4.10;;
25982;SDS011;13773;48.868;10.730;2024-03-23T03:00:04;3.93;;;3.07;;
25982;SDS011;13773;48.868;10.730;2024-03-23T03:02:31;5.20;;;3.77;;
25982;SDS011;13773;48.868;10.730;2024-03-23T03:04:57;5.77;;;4.03;;
25982;SDS011;13773;48.868;10.730;2024-03-23T03:07:22;6.07;;;3.67;;
25982;SDS011;13773;48.868;10.730;2024-03-23T03:09:48;4.57;;;3.03;;
25982;SDS011;13773;48.868;10.730;2024-03-23T03:12:14;5.67;;;3.73;;
25982;SDS011;13773;48.868;10.730;2024-03-23T03:14:39;3.90;;;3.20;;
25982;SDS011;13773;48.868;10.730;2024-03-23T03:17:05;5.83;;;3.63;;
25982;SDS011;13773;48.868;10.730;2024-03-23T03:19:31;6.57;;;3.30;;
25982;SDS011;13773;48.868;10.730;2024-03-23T03:21:57;4.20;;;3.27;;
25982;SDS011;13773;48.868;10.730;2024-03-23T03:24:23;7.10;;;3.80;;
25982;SDS011;13773;48.868;10.730;2024-03-23T03:26:48;4.33;;;3.20;;
25982;SDS011;13773;48.868;10.730;2024-03-23T03:29:15;3.70;;;3.13;;
25982;SDS011;13773;48.868;10.730;2024-03-23T03:31:41;3.77;;;3.40;;
25982;SDS011;13773;48.868;10.730;2024-03-23T03:34:07;4.30;;;3.47;;
25982;SDS011;13773;48.868;10.730;2024-03-23T03:36:33;4.00;;;3.20;;
25982;SDS011;13773;48.868;10.730;2024-03-23T03:38:58;4.23;;;3.83;;
25982;SDS011;13773;48.868;10.730;2024-03-23T03:41:24;3.90;;;3.20;;
25982;SDS011;13773;48.868;10.730;2024-03-23T03:43:50;4.43;;;3.33;;
25982;SDS011;13773;48.868;10.730;2024-03-23T03:46:16;4.57;;;3.33;;
25982;SDS011;13773;48.868;10.730;2024-03-23T03:48:42;6.33;;;3.70;;
25982;SDS011;13773;48.868;10.730;2024-03-23T03:51:10;3.13;;;2.83;;
25982;SDS011;13773;48.868;10.730;2024-03-23T03:53:35;3.53;;;3.07;;
25982;SDS011;13773;48.868;10.730;2024-03-23T03:56:01;4.00;;;3.40;;
25982;SDS011;13773;48.868;10.730;2024-03-23T03:58:27;4.77;;;3.90;;
25982;SDS011;13773;48.868;10.730;2024-03-23T04:00:53;4.87;;;3.83;;
25982;SDS011;13773;48.868;10.730;2024-03-23T04:03:19;4.73;;;3.20;;
25982;SDS011;13773;48.868;10.730;2024-03-23T04:05:51;5.27;;;3.43;;
25982;SDS011;13773;48.868;10.730;2024-03-23T04:08:18;4.57;;;3.47;;
25982;SDS011;13773;48.868;10.730;2024-03-23T04:10:44;4.37;;;3.77;;
25982;SDS011;13773;48.868;10.730;2024-03-23T04:13:10;4.00;;;3.57;;
25982;SDS011;13773;48.868;10.730;2024-03-23T04:15:37;4.10;;;3.70;;
25982;SDS011;13773;48.868;10.730;2024-03-23T04:18:02;4.63;;;3.60;;
25982;SDS011;13773;48.868;10.730;2024-03-23T04:20:28;3.60;;;3.30;;
25982;SDS011;13773;48.868;10.730;2024-03-23T04:22:54;4.60;;;3.57;;
25982;SDS011;13773;48.868;10.730;2024-03-23T04:25:19;5.67;;;3.40;;
25982;SDS011;13773;48.868;10.730;2024-03-23T04:27:45;4.57;;;3.43;;
25982;SDS011;13773;48.868;10.730;2024-03-23T04:30:11;6.90;;;4.20;;
25982;SDS011;13773;48.868;10.730;2024-03-23T04:32:37;4.83;;;3.77;;
25982;SDS011;13773;48.868;10.730;2024-03-23T04:35:04;3.27;;;2.97;;
25982;SDS011;13773;48.868;10.730;2024-03-23T04:37:34;4.20;;;3.10;;
25982;SDS011;13773;48.868;10.730;2024-03-23T04:40:01;5.90;;;3.30;;
25982;SDS011;13773;48.868;10.730;2024-03-23T04:42:28;5.20;;;2.90;;
25982;SDS011;13773;48.868;10.730;2024-03-23T04:44:53;3.43;;;3.00;;
25982;SDS011;13773;48.868;10.730;2024-03-23T04:47:19;3.50;;;3.20;;
25982;SDS011;13773;48.868;10.730;2024-03-23T04:49:45;5.03;;;3.27;;
25982;SDS011;13773;48.868;10.730;2024-03-23T04:52:10;5.63;;;2.97;;
25982;SDS011;13773;48.868;10.730;2024-03-23T04:54:37;5.97;;;3.20;;
25982;SDS011;13773;48.868;10.730;2024-03-23T04:59:32;3.97;;;3.27;;
25982;SDS011;13773;48.868;10.730;2024-03-23T05:01:58;7.27;;;2.93;;
25982;SDS011;13773;48.868;10.730;2024-03-23T05:04:25;3.57;;;2.77;;
25982;SDS011;13773;48.868;10.730;2024-03-23T05:06:50;5.13;;;2.90;;
25982;SDS011;13773;48.868;10.730;2024-03-23T05:09:16;4.03;;;2.87;;
25982;SDS011;13773;48.868;10.730;2024-03-23T05:11:42;5.00;;;2.80;;
25982;SDS011;13773;48.868;10.730;2024-03-23T05:14:07;3.67;;;2.87;;
25982;SDS011;13773;48.868;10.730;2024-03-23T05:16:33;4.33;;;2.87;;
25982;SDS011;13773;48.868;10.730;2024-03-23T05:18:59;5.50;;;2.97;;
25982;SDS011;13773;48.868;10.730;2024-03-23T05:21:25;6.37;;;2.90;;
25982;SDS011;13773;48.868;10.730;2024-03-23T05:23:53;4.83;;;2.90;;
25982;SDS011;13773;48.868;10.730;2024-03-23T05:26:19;4.33;;;2.93;;
25982;SDS011;13773;48.868;10.730;2024-03-23T05:28:45;3.00;;;2.70;;
25982;SDS011;13773;48.868;10.730;2024-03-23T05:31:10;3.60;;;2.67;;
25982;SDS011;13773;48.868;10.730;2024-03-23T05:33:36;4.30;;;2.90;;
25982;SDS011;13773;48.868;10.730;2024-03-23T05:36:03;3.50;;;2.80;;
25982;SDS011;13773;48.868;10.730;2024-03-23T05:38:29;4.33;;;3.17;;
25982;SDS011;13773;48.868;10.730;2024-03-23T05:40:58;4.17;;;2.77;;
25982;SDS011;13773;48.868;10.730;2024-03-23T05:43:25;4.53;;;3.43;;
25982;SDS011;13773;48.868;10.730;2024-03-23T05:45:54;4.23;;;3.47;;
25982;SDS011;13773;48.868;10.730;2024-03-23T05:48:21;3.23;;;2.80;;
25982;SDS011;13773;48.868;10.730;2024-03-23T05:50:47;3.60;;;3.10;;
25982;SDS011;13773;48.868;10.730;2024-03-23T05:53:14;4.93;;;3.47;;
25982;SDS011;13773;48.868;10.730;2024-03-23T05:55:40;4.03;;;3.00;;
25982;SDS011;13773;48.868;10.730;2024-03-23T05:58:06;4.77;;;3.30;;
25982;SDS011;13773;48.868;10.730;2024-03-23T06:00:32;3.93;;;3.20;;
25982;SDS011;13773;48.868;10.730;2024-03-23T06:02:57;3.90;;;3.33;;
25982;SDS011;13773;48.868;10.730;2024-03-23T06:05:23;4.73;;;3.20;;
25982;SDS011;13773;48.868;10.730;2024-03-23T06:07:49;6.23;;;3.07;;
25982;SDS011;13773;48.868;10.730;2024-03-23T06:10:15;4.00;;;2.90;;
25982;SDS011;13773;48.868;10.730;2024-03-23T06:12:41;6.17;;;4.10;;
25982;SDS011;13773;48.868;10.730;2024-03-23T06:15:07;4.17;;;3.40;;
25982;SDS011;13773;48.868;10.730;2024-03-23T06:17:38;4.70;;;3.33;;
25982;SDS011;13773;48.868;10.730;2024-03-23T06:20:04;5.10;;;2.97;;
25982;SDS011;13773;48.868;10.730;2024-03-23T06:22:33;5.60;;;3.60;;
25982;SDS011;13773;48.868;10.730;2024-03-23T06:24:59;4.63;;;3.30;;
25982;SDS011;13773;48.868;10.730;2024-03-23T06:27:25;7.23;;;3.87;;
25982;SDS011;13773;48.868;10.730;2024-03-23T06:29:50;5.00;;;3.30;;
25982;SDS011;13773;48.868;10.730;2024-03-23T06:32:16;5.97;;;4.07;;
25982;SDS011;13773;48.868;10.730;2024-03-23T06:34:42;5.37;;;4.37;;
25982;SDS011;13773;48.868;10.730;2024-03-23T06:37:08;6.07;;;4.63;;
25982;SDS011;13773;48.868;10.730;2024-03-23T06:39:35;6.30;;;4.73;;
25982;SDS011;13773;48.868;10.730;2024-03-23T06:42:04;8.43;;;5.83;;
25982;SDS011;13773;48.868;10.730;2024-03-23T06:44:30;9.50;;;6.07;;
25982;SDS011;13773;48.868;10.730;2024-03-23T06:46:56;8.27;;;6.93;;
25982;SDS011;13773;48.868;10.730;2024-03-23T06:49:22;9.07;;;6.87;;
25982;SDS011;13773;48.868;10.730;2024-03-23T06:51:48;11.90;;;8.17;;
25982;SDS011;13773;48.868;10.730;2024-03-23T06:54:14;10.27;;;7.90;;
25982;SDS011;13773;48.868;10.730;2024-03-23T06:56:41;12.73;;;7.87;;
25982;SDS011;13773;48.868;10.730;2024-03-23T06:59:06;11.60;;;8.87;;
25982;SDS011;13773;48.868;10.730;2024-03-23T07:01:32;11.43;;;9.43;;
25982;SDS011;13773;48.868;10.730;2024-03-23T07:03:58;12.57;;;9.57;;
25982;SDS011;13773;48.868;10.730;2024-03-23T07:06:24;12.00;;;8.97;;
25982;SDS011;13773;48.868;10.730;2024-03-23T07:08:49;11.13;;;8.00;;
25982;SDS011;13773;48.868;10.730;2024-03-23T07:11:22;10.67;;;7.27;;
25982;SDS011;13773;48.868;10.730;2024-03-23T07:13:52;9.70;;;7.23;;
25982;SDS011;13773;48.868;10.730;2024-03-23T07:16:21;9.47;;;6.27;;
25982;SDS011;13773;48.868;10.730;2024-03-23T07:18:47;9.97;;;7.00;;
25982;SDS011;13773;48.868;10.730;2024-03-23T07:21:14;9.00;;;6.07;;
25982;SDS011;13773;48.868;10.730;2024-03-23T07:23:43;10.20;;;7.10;;
25982;SDS011;13773;48.868;10.730;2024-03-23T07:26:12;9.00;;;6.27;;
25982;SDS011;13773;48.868;10.730;2024-03-23T07:28:38;8.97;;;6.07;;
25982;SDS011;13773;48.868;10.730;2024-03-23T07:31:09;7.70;;;6.00;;
25982;SDS011;13773;48.868;10.730;2024-03-23T07:33:36;9.20;;;5.43;;
25982;SDS011;13773;48.868;10.730;2024-03-23T07:36:03;9.00;;;5.80;;
25982;SDS011;13773;48.868;10.730;2024-03-23T07:38:30;8.60;;;5.13;;
25982;SDS011;13773;48.868;10.730;2024-03-23T07:41:29;6.37;;;4.47;;
25982;SDS011;13773;48.868;10.730;2024-03-23T07:43:48;6.90;;;4.80;;
25982;SDS011;13773;48.868;10.730;2024-03-23T07:46:15;6.73;;;4.70;;
25982;SDS011;13773;48.868;10.730;2024-03-23T07:48:41;6.40;;;4.57;;
25982;SDS011;13773;48.868;10.730;2024-03-23T07:53:33;6.27;;;4.63;;
25982;SDS011;13773;48.868;10.730;2024-03-23T07:56:01;7.47;;;4.33;;
25982;SDS011;13773;48.868;10.730;2024-03-23T07:58:30;7.57;;;4.67;;
25982;SDS011;13773;48.868;10.730;2024-03-23T08:00:56;6.00;;;4.37;;
25982;SDS011;13773;48.868;10.730;2024-03-23T08:03:28;6.47;;;4.50;;
25982;SDS011;13773;48.868;10.730;2024-03-23T08:05:53;4.93;;;4.40;;
25982;SDS011;13773;48.868;10.730;2024-03-23T08:08:19;4.57;;;3.57;;
25982;SDS011;13773;48.868;10.730;2024-03-23T08:10:51;4.03;;;3.30;;
25982;SDS011;13773;48.868;10.730;2024-03-23T08:13:18;4.37;;;3.50;;
25982;SDS011;13773;48.868;10.730;2024-03-23T08:15:44;5.40;;;3.33;;
25982;SDS011;13773;48.868;10.730;2024-03-23T08:18:11;4.77;;;3.27;;
25982;SDS011;13773;48.868;10.730;2024-03-23T08:20:38;3.60;;;2.93;;
25982;SDS011;13773;48.868;10.730;2024-03-23T08:23:05;5.10;;;3.70;;
25982;SDS011;13773;48.868;10.730;2024-03-23T08:25:31;4.83;;;3.30;;
25982;SDS011;13773;48.868;10.730;2024-03-23T08:27:57;6.33;;;4.43;;
25982;SDS011;13773;48.868;10.730;2024-03-23T08:30:23;2.60;;;2.40;;
25982;SDS011;13773;48.868;10.730;2024-03-23T08:32:49;3.50;;;2.47;;
25982;SDS011;13773;48.868;10.730;2024-03-23T08:35:14;2.77;;;2.00;;
25982;SDS011;13773;48.868;10.730;2024-03-23T08:37:40;3.00;;;1.80;;
25982;SDS011;13773;48.868;10.730;2024-03-23T08:40:06;2.07;;;1.63;;
25982;SDS011;13773;48.868;10.730;2024-03-23T08:42:33;2.80;;;1.50;;
25982;SDS011;13773;48.868;10.730;2024-03-23T08:44:59;1.90;;;1.40;;
25982;SDS011;13773;48.868;10.730;2024-03-23T08:47:24;1.60;;;1.50;;
25982;SDS011;13773;48.868;10.730;2024-03-23T08:49:50;1.40;;;1.30;;
25982;SDS011;13773;48.868;10.730;2024-03-23T08:52:16;2.43;;;1.80;;
25982;SDS011;13773;48.868;10.730;2024-03-23T08:54:42;2.07;;;1.73;;
25982;SDS011;13773;48.868;10.730;2024-03-23T08:57:08;2.27;;;1.90;;
25982;SDS011;13773;48.868;10.730;2024-03-23T08:59:34;1.40;;;1.20;;
25982;SDS011;13773;48.868;10.730;2024-03-23T09:02:00;1.93;;;1.70;;
25982;SDS011;13773;48.868;10.730;2024-03-23T09:04:25;1.40;;;1.30;;
25982;SDS011;13773;48.868;10.730;2024-03-23T09:06:51;1.17;;;1.07;;
25982;SDS011;13773;48.868;10.730;2024-03-23T09:09:17;1.20;;;1.10;;
25982;SDS011;13773;48.868;10.730;2024-03-23T09:11:42;1.20;;;1.10;;
25982;SDS011;13773;48.868;10.730;2024-03-23T09:14:08;2.23;;;1.20;;
25982;SDS011;13773;48.868;10.730;2024-03-23T09:16:34;1.93;;;1.07;;
25982;SDS011;13773;48.868;10.730;2024-03-23T09:19:00;1.40;;;1.20;;
25982;SDS011;13773;48.868;10.730;2024-03-23T09:21:26;1.40;;;1.30;;
25982;SDS011;13773;48.868;10.730;2024-03-23T09:23:52;1.77;;;1.40;;
25982;SDS011;13773;48.868;10.730;2024-03-23T09:26:17;2.07;;;1.77;;
25982;SDS011;13773;48.868;10.730;2024-03-23T09:28:43;1.53;;;1.43;;
25982;SDS011;13773;48.868;10.730;2024-03-23T09:31:09;1.70;;;1.40;;
25982;SDS011;13773;48.868;10.730;2024-03-23T09:33:39;1.90;;;1.53;;
25982;SDS011;13773;48.868;10.730;2024-03-23T09:36:05;2.47;;;1.53;;
25982;SDS011;13773;48.868;10.730;2024-03-23T09:38:32;1.40;;;1.30;;
25982;SDS011;13773;48.868;10.730;2024-03-23T09:40:58;1.63;;;1.50;;
25982;SDS011;13773;48.868;10.730;2024-03-23T09:43:24;1.30;;;1.20;;
25982;SDS011;13773;48.868;10.730;2024-03-23T09:45:50;2.07;;;1.20;;
25982;SDS011;13773;48.868;10.730;2024-03-23T09:48:17;1.50;;;1.40;;
25982;SDS011;13773;48.868;10.730;2024-03-23T09:50:43;1.40;;;1.30;;
25982;SDS011;13773;48.868;10.730;2024-03-23T09:53:13;1.40;;;1.30;;
25982;SDS011;13773;48.868;10.730;2024-03-23T09:55:42;1.50;;;1.40;;
25982;SDS011;13773;48.868;10.730;2024-03-23T09:58:12;1.43;;;1.30;;
25982;SDS011;13773;48.868;10.730;2024-03-23T10:00:38;1.47;;;1.37;;
25982;SDS011;13773;48.868;10.730;2024-03-23T10:03:09;1.53;;;1.43;;
25982;SDS011;13773;48.868;10.730;2024-03-23T10:05:36;2.50;;;1.50;;
25982;SDS011;13773;48.868;10.730;2024-03-23T10:08:17;1.77;;;1.40;;
25982;SDS011;13773;48.868;10.730;2024-03-23T10:10:46;1.97;;;1.67;;
25982;SDS011;13773;48.868;10.730;2024-03-23T10:13:33;2.63;;;1.30;;
25982;SDS011;13773;48.868;10.730;2024-03-23T10:15:58;1.57;;;1.47;;
25982;SDS011;13773;48.868;10.730;2024-03-23T10:18:24;2.30;;;1.80;;
25982;SDS011;13773;48.868;10.730;2024-03-23T10:20:52;1.53;;;1.43;;
25982;SDS011;13773;48.868;10.730;2024-03-23T10:23:34;1.67;;;1.53;;
25982;SDS011;13773;48.868;10.730;2024-03-23T10:26:20;2.23;;;1.97;;
25982;SDS011;13773;48.868;10.730;2024-03-23T10:28:52;1.40;;;1.30;;
25982;SDS011;13773;48.868;10.730;2024-03-23T10:31:17;1.70;;;1.60;;
25982;SDS011;13773;48.868;10.730;2024-03-23T10:33:44;1.57;;;1.43;;
25982;SDS011;13773;48.868;10.730;2024-03-23T10:36:13;2.47;;;1.37;;
25982;SDS011;13773;48.868;10.730;2024-03-23T10:38:43;1.60;;;1.50;;
25982;SDS011;13773;48.868;10.730;2024-03-23T10:41:10;1.87;;;1.40;;
25982;SDS011;13773;48.868;10.730;2024-03-23T10:43:36;2.13;;;1.80;;
25982;SDS011;13773;48.868;10.730;2024-03-23T10:46:03;4.13;;;1.70;;
25982;SDS011;13773;48.868;10.730;2024-03-23T10:48:29;3.13;;;2.13;;
25982;SDS011;13773;48.868;10.730;2024-03-23T10:50:56;2.97;;;2.10;;
25982;SDS011;13773;48.868;10.730;2024-03-23T10:53:22;3.03;;;2.30;;
25982;SDS011;13773;48.868;10.730;2024-03-23T10:55:51;3.17;;;2.30;;
25982;SDS011;13773;48.868;10.730;2024-03-23T10:58:28;2.57;;;2.17;;
25982;SDS011;13773;48.868;10.730;2024-03-23T11:00:56;5.67;;;2.63;;
25982;SDS011;13773;48.868;10.730;2024-03-23T11:05:58;5.13;;;2.37;;
25982;SDS011;13773;48.868;10.730;2024-03-23T11:08:35;3.83;;;2.57;;
25982;SDS011;13773;48.868;10.730;2024-03-23T11:11:20;3.60;;;2.70;;
25982;SDS011;13773;48.868;10.730;2024-03-23T11:13:48;4.33;;;2.90;;
25982;SDS011;13773;48.868;10.730;2024-03-23T11:16:15;3.57;;;2.63;;
25982;SDS011;13773;48.868;10.730;2024-03-23T11:18:46;2.97;;;2.60;;
25982;SDS011;13773;48.868;10.730;2024-03-23T11:21:18;3.67;;;2.00;;
25982;SDS011;13773;48.868;10.730;2024-03-23T11:24:33;5.43;;;2.80;;
25982;SDS011;13773;48.868;10.730;2024-03-23T11:26:59;4.13;;;2.50;;
25982;SDS011;13773;48.868;10.730;2024-03-23T11:29:28;5.40;;;2.00;;
25982;SDS011;13773;48.868;10.730;2024-03-23T11:31:54;2.40;;;1.77;;
25982;SDS011;13773;48.868;10.730;2024-03-23T11:34:20;2.80;;;2.20;;
25982;SDS011;13773;48.868;10.730;2024-03-23T11:36:47;5.60;;;2.57;;
25982;SDS011;13773;48.868;10.730;2024-03-23T11:39:14;3.27;;;2.00;;
25982;SDS011;13773;48.868;10.730;2024-03-23T11:41:49;3.10;;;2.20;;
25982;SDS011;13773;48.868;10.730;2024-03-23T11:44:17;4.43;;;2.57;;
25982;SDS011;13773;48.868;10.730;2024-03-23T11:46:50;7.30;;;2.50;;
25982;SDS011;13773;48.868;10.730;2024-03-23T11:49:26;4.73;;;2.70;;
25982;SDS011;13773;48.868;10.730;2024-03-23T11:51:53;4.27;;;2.30;;
25982;SDS011;13773;48.868;10.730;2024-03-23T11:54:20;5.97;;;2.67;;
25982;SDS011;13773;48.868;10.730;2024-03-23T11:56:53;3.80;;;2.07;;
25982;SDS011;13773;48.868;10.730;2024-03-23T11:59:30;4.93;;;2.00;;
25982;SDS011;13773;48.868;10.730;2024-03-23T12:02:00;6.90;;;2.70;;
25982;SDS011;13773;48.868;10.730;2024-03-23T12:04:35;3.03;;;2.07;;
25982;SDS011;13773;48.868;10.730;2024-03-23T12:07:19;5.20;;;2.57;;
25982;SDS011;13773;48.868;10.730;2024-03-23T12:09:46;5.03;;;2.33;;
25982;SDS011;13773;48.868;10.730;2024-03-23T12:12:27;4.57;;;2.70;;
25982;SDS011;13773;48.868;10.730;2024-03-23T12:15:05;4.03;;;2.00;;
25982;SDS011;13773;48.868;10.730;2024-03-23T12:17:32;4.03;;;2.20;;
25982;SDS011;13773;48.868;10.730;2024-03-23T12:19:58;5.87;;;2.83;;
25982;SDS011;13773;48.868;10.730;2024-03-23T12:22:24;6.70;;;2.40;;
25982;SDS011;13773;48.868;10.730;2024-03-23T12:24:50;6.40;;;2.60;;
25982;SDS011;13773;48.868;10.730;2024-03-23T12:27:15;5.13;;;2.40;;
25982;SDS011;13773;48.868;10.730;2024-03-23T12:29:41;4.73;;;2.60;;
25982;SDS011;13773;48.868;10.730;2024-03-23T12:32:10;7.33;;;3.00;;
25982;SDS011;13773;48.868;10.730;2024-03-23T12:34:37;5.13;;;2.13;;
25982;SDS011;13773;48.868;10.730;2024-03-23T12:37:02;5.80;;;3.03;;
25982;SDS011;13773;48.868;10.730;2024-03-23T12:39:28;5.10;;;2.83;;
25982;SDS011;13773;48.868;10.730;2024-03-23T12:41:54;5.23;;;2.87;;
25982;SDS011;13773;48.868;10.730;2024-03-23T12:44:20;4.70;;;3.10;;
25982;SDS011;13773;48.868;10.730;2024-03-23T12:46:46;3.87;;;2.30;;
25982;SDS011;13773;48.868;10.730;2024-03-23T12:49:11;5.93;;;2.70;;
25982;SDS011;13773;48.868;10.730;2024-03-23T12:51:37;6.83;;;3.10;;
25982;SDS011;13773;48.868;10.730;2024-03-23T12:54:03;8.53;;;3.30;;
25982;SDS011;13773;48.868;10.730;2024-03-23T12:56:29;5.20;;;3.07;;
25982;SDS011;13773;48.868;10.730;2024-03-23T12:58:58;6.70;;;3.17;;
25982;SDS011;13773;48.868;10.730;2024-03-23T13:01:24;6.93;;;3.00;;
25982;SDS011;13773;48.868;10.730;2024-03-23T13:03:50;7.73;;;3.27;;
25982;SDS011;13773;48.868;10.730;2024-03-23T13:06:16;6.60;;;3.00;;
25982;SDS011;13773;48.868;10.730;2024-03-23T13:08:46;6.27;;;2.53;;
25982;SDS011;13773;48.868;10.730;2024-03-23T13:11:14;5.80;;;3.07;;
25982;SDS011;13773;48.868;10.730;2024-03-23T13:13:41;3.03;;;1.80;;
25982;SDS011;13773;48.868;10.730;2024-03-23T13:16:07;2.53;;;1.80;;
25982;SDS011;13773;48.868;10.730;2024-03-23T13:18:33;3.43;;;2.00;;
25982;SDS011;13773;48.868;10.730;2024-03-23T13:20:58;2.73;;;1.67;;
25982;SDS011;13773;48.868;10.730;2024-03-23T13:23:24;4.50;;;1.60;;
25982;SDS011;13773;48.868;10.730;2024-03-23T13:25:50;2.90;;;1.33;;
25982;SDS011;13773;48.868;10.730;2024-03-23T13:28:20;5.83;;;1.70;;
25982;SDS011;13773;48.868;10.730;2024-03-23T13:31:04;2.30;;;1.47;;
25982;SDS011;13773;48.868;10.730;2024-03-23T13:33:30;4.30;;;1.80;;
25982;SDS011;13773;48.868;10.730;2024-03-23T13:35:57;3.90;;;1.67;;
25982;SDS011;13773;48.868;10.730;2024-03-23T13:38:23;4.03;;;1.53;;
25982;SDS011;13773;48.868;10.730;2024-03-23T13:40:50;4.77;;;1.60;;
25982;SDS011;13773;48.868;10.730;2024-03-23T13:43:15;2.60;;;1.50;;
25982;SDS011;13773;48.868;10.730;2024-03-23T13:45:41;4.17;;;1.73;;
25982;SDS011;13773;48.868;10.730;2024-03-23T13:48:07;7.10;;;2.20;;
25982;SDS011;13773;48.868;10.730;2024-03-23T13:50:33;5.73;;;2.20;;
25982;SDS011;13773;48.868;10.730;2024-03-23T13:52:59;3.63;;;2.13;;
25982;SDS011;13773;48.868;10.730;2024-03-23T13:55:24;3.43;;;1.57;;
25982;SDS011;13773;48.868;10.730;2024-03-23T13:57:50;3.87;;;2.10;;
25982;SDS011;13773;48.868;10.730;2024-03-23T14:00:16;4.67;;;1.80;;
25982;SDS011;13773;48.868;10.730;2024-03-23T14:02:43;4.53;;;2.00;;
25982;SDS011;13773;48.868;10.730;2024-03-23T14:05:09;3.67;;;1.50;;
25982;SDS011;13773;48.868;10.730;2024-03-23T14:07:36;3.47;;;1.93;;
25982;SDS011;13773;48.868;10.730;2024-03-23T14:10:02;3.43;;;2.07;;
25982;SDS011;13773;48.868;10.730;2024-03-23T14:12:30;4.70;;;2.67;;
25982;SDS011;13773;48.868;10.730;2024-03-23T14:14:55;5.90;;;1.93;;
25982;SDS011;13773;48.868;10.730;2024-03-23T14:17:21;4.83;;;2.13;;
25982;SDS011;13773;48.868;10.730;2024-03-23T14:19:47;6.63;;;2.43;;
25982;SDS011;13773;48.868;10.730;2024-03-23T14:22:12;6.17;;;2.00;;
25982;SDS011;13773;48.868;10.730;2024-03-23T14:24:38;3.83;;;2.17;;
25982;SDS011;13773;48.868;10.730;2024-03-23T14:27:04;3.83;;;2.23;;
25982;SDS011;13773;48.868;10.730;2024-03-23T14:29:32;6.10;;;1.97;;
25982;SDS011;13773;48.868;10.730;2024-03-23T14:31:59;3.47;;;1.93;;
25982;SDS011;13773;48.868;10.730;2024-03-23T14:34:26;3.47;;;1.80;;
25982;SDS011;13773;48.868;10.730;2024-03-23T14:36:53;6.97;;;1.80;;
25982;SDS011;13773;48.868;10.730;2024-03-23T14:39:22;4.40;;;1.93;;
25982;SDS011;13773;48.868;10.730;2024-03-23T14:41:50;3.87;;;1.80;;
25982;SDS011;13773;48.868;10.730;2024-03-23T14:44:15;4.07;;;1.93;;
25982;SDS011;13773;48.868;10.730;2024-03-23T14:46:41;4.63;;;1.70;;
25982;SDS011;13773;48.868;10.730;2024-03-23T14:49:08;5.03;;;2.20;;
25982;SDS011;13773;48.868;10.730;2024-03-23T14:51:33;4.80;;;2.10;;
25982;SDS011;13773;48.868;10.730;2024-03-23T14:53:59;4.23;;;1.90;;
25982;SDS011;13773;48.868;10.730;2024-03-23T14:56:25;5.33;;;1.87;;
25982;SDS011;13773;48.868;10.730;2024-03-23T14:58:54;4.83;;;2.83;;
25982;SDS011;13773;48.868;10.730;2024-03-23T15:01:21;3.77;;;1.77;;
25982;SDS011;13773;48.868;10.730;2024-03-23T15:03:46;6.83;;;1.80;;
25982;SDS011;13773;48.868;10.730;2024-03-23T15:06:12;3.83;;;1.93;;
25982;SDS011;13773;48.868;10.730;2024-03-23T15:08:38;3.67;;;1.50;;
25982;SDS011;13773;48.868;10.730;2024-03-23T15:11:05;6.40;;;2.53;;
25982;SDS011;13773;48.868;10.730;2024-03-23T15:13:34;4.80;;;1.80;;
25982;SDS011;13773;48.868;10.730;2024-03-23T15:16:01;3.50;;;1.77;;
25982;SDS011;13773;48.868;10.730;2024-03-23T15:18:30;4.33;;;1.90;;
25982;SDS011;13773;48.868;10.730;2024-03-23T15:20:58;5.23;;;1.40;;
25982;SDS011;13773;48.868;10.730;2024-03-23T15:23:28;3.73;;;1.57;;
25982;SDS011;13773;48.868;10.730;2024-03-23T15:28:21;4.20;;;1.60;;
25982;SDS011;13773;48.868;10.730;2024-03-23T15:30:48;5.10;;;1.70;;
25982;SDS011;13773;48.868;10.730;2024-03-23T15:33:13;6.30;;;2.57;;
25982;SDS011;13773;48.868;10.730;2024-03-23T15:35:39;4.13;;;2.00;;